sensor_id;sensor_type;location;lat;lon;timestamp;temperature;humidity
23755;DHT22;12057;52.042;6.830;2023-01-19T00:01:27;2.60;99.90
23755;DHT22;12057;52.042;6.830;2023-01-19T00:06:30;2.60;99.90
23755;DHT22;12057;52.042;6.830;2023-01-19T00:11:31;2.60;99.90
23755;DHT22;12057;52.042;6.830;2023-01-19T00:16:32;2.60;99.90
23755;DHT22;12057;52.042;6.830;2023-01-19T00:21:33;2.60;99.90
23755;DHT22;12057;52.042;6.830;2023-01-19T00:26:34;2.60;99.90
23755;DHT22;12057;52.042;6.830;2023-01-19T00:31:35;2.50;99.90
23755;DHT22;12057;52.042;6.830;2023-01-19T00:36:35;2.40;99.90
23755;DHT22;12057;52.042;6.830;2023-01-19T00:41:36;2.40;99.90
23755;DHT22;12057;52.042;6.830;2023-01-19T00:46:55;2.40;99.90
23755;DHT22;12057;52.042;6.830;2023-01-19T00:51:56;2.40;99.90
23755;DHT22;12057;52.042;6.830;2023-01-19T00:56:57;2.40;99.90
23755;DHT22;12057;52.042;6.830;2023-01-19T01:01:57;2.40;99.90
23755;DHT22;12057;52.042;6.830;2023-01-19T01:06:58;2.40;99.90
23755;DHT22;12057;52.042;6.830;2023-01-19T01:11:59;2.40;99.90
23755;DHT22;12057;52.042;6.830;2023-01-19T01:17:00;2.40;99.90
23755;DHT22;12057;52.042;6.830;2023-01-19T01:22:00;2.50;99.90
23755;DHT22;12057;52.042;6.830;2023-01-19T01:27:02;2.50;99.90
23755;DHT22;12057;52.042;6.830;2023-01-19T01:32:02;2.60;99.90
23755;DHT22;12057;52.042;6.830;2023-01-19T01:37:03;2.50;99.90
23755;DHT22;12057;52.042;6.830;2023-01-19T01:42:16;2.60;99.90
23755;DHT22;12057;52.042;6.830;2023-01-19T01:47:44;2.50;99.90
23755;DHT22;12057;52.042;6.830;2023-01-19T01:52:53;2.50;99.90
23755;DHT22;12057;52.042;6.830;2023-01-19T01:57:59;2.50;99.90
23755;DHT22;12057;52.042;6.830;2023-01-19T02:03:01;2.40;99.90
23755;DHT22;12057;52.042;6.830;2023-01-19T02:08:09;2.40;99.90
23755;DHT22;12057;52.042;6.830;2023-01-19T02:13:35;2.30;99.90
23755;DHT22;12057;52.042;6.830;2023-01-19T02:18:36;2.40;99.90
23755;DHT22;12057;52.042;6.830;2023-01-19T02:23:41;2.30;99.90
23755;DHT22;12057;52.042;6.830;2023-01-19T02:28:59;2.30;99.90
23755;DHT22;12057;52.042;6.830;2023-01-19T02:34:01;2.30;99.90
23755;DHT22;12057;52.042;6.830;2023-01-19T02:39:03;2.30;99.90
23755;DHT22;12057;52.042;6.830;2023-01-19T02:44:07;2.40;99.90
23755;DHT22;12057;52.042;6.830;2023-01-19T02:49:09;2.50;99.90
23755;DHT22;12057;52.042;6.830;2023-01-19T03:10:19;2.60;99.90
23755;DHT22;12057;52.042;6.830;2023-01-19T03:15:30;2.60;99.90
23755;DHT22;12057;52.042;6.830;2023-01-19T03:20:32;2.50;99.90
23755;DHT22;12057;52.042;6.830;2023-01-19T03:25:35;2.40;99.90
23755;DHT22;12057;52.042;6.830;2023-01-19T03:30:45;2.40;99.90
23755;DHT22;12057;52.042;6.830;2023-01-19T03:35:50;2.30;99.90
23755;DHT22;12057;52.042;6.830;2023-01-19T03:40:59;2.30;99.90
23755;DHT22;12057;52.042;6.830;2023-01-19T03:46:02;2.20;99.90
23755;DHT22;12057;52.042;6.830;2023-01-19T03:51:06;2.10;99.90
23755;DHT22;12057;52.042;6.830;2023-01-19T03:56:24;2.10;99.90
23755;DHT22;12057;52.042;6.830;2023-01-19T04:01:25;2.10;99.90
23755;DHT22;12057;52.042;6.830;2023-01-19T04:06:25;2.00;99.90
23755;DHT22;12057;52.042;6.830;2023-01-19T04:11:27;1.90;99.90
23755;DHT22;12057;52.042;6.830;2023-01-19T04:16:28;1.80;99.90
23755;DHT22;12057;52.042;6.830;2023-01-19T04:21:29;1.70;99.90
23755;DHT22;12057;52.042;6.830;2023-01-19T04:26:29;1.70;99.90
23755;DHT22;12057;52.042;6.830;2023-01-19T04:31:30;1.70;99.90
23755;DHT22;12057;52.042;6.830;2023-01-19T04:36:34;1.60;99.90
23755;DHT22;12057;52.042;6.830;2023-01-19T04:41:35;1.60;99.90
23755;DHT22;12057;52.042;6.830;2023-01-19T04:46:35;1.70;99.90
23755;DHT22;12057;52.042;6.830;2023-01-19T04:51:36;1.70;99.90
23755;DHT22;12057;52.042;6.830;2023-01-19T04:56:37;1.80;99.90
23755;DHT22;12057;52.042;6.830;2023-01-19T05:01:39;1.80;99.90
23755;DHT22;12057;52.042;6.830;2023-01-19T05:06:40;1.80;99.90
23755;DHT22;12057;52.042;6.830;2023-01-19T05:11:40;1.80;99.90
23755;DHT22;12057;52.042;6.830;2023-01-19T05:16:41;1.80;99.90
23755;DHT22;12057;52.042;6.830;2023-01-19T05:21:42;1.80;99.90
23755;DHT22;12057;52.042;6.830;2023-01-19T05:26:43;1.70;99.90
23755;DHT22;12057;52.042;6.830;2023-01-19T05:31:43;1.70;99.90
23755;DHT22;12057;52.042;6.830;2023-01-19T05:36:44;1.70;99.90
23755;DHT22;12057;52.042;6.830;2023-01-19T05:41:45;1.80;99.90
23755;DHT22;12057;52.042;6.830;2023-01-19T05:46:46;1.70;99.90
23755;DHT22;12057;52.042;6.830;2023-01-19T05:51:50;1.70;99.90
23755;DHT22;12057;52.042;6.830;2023-01-19T05:56:50;1.80;99.90
23755;DHT22;12057;52.042;6.830;2023-01-19T06:01:52;1.80;99.90
23755;DHT22;12057;52.042;6.830;2023-01-19T06:06:56;1.80;99.90
23755;DHT22;12057;52.042;6.830;2023-01-19T06:11:57;1.80;99.90
23755;DHT22;12057;52.042;6.830;2023-01-19T06:16:58;1.80;99.90
23755;DHT22;12057;52.042;6.830;2023-01-19T06:21:59;1.80;99.90
23755;DHT22;12057;52.042;6.830;2023-01-19T06:27:00;1.80;99.90
23755;DHT22;12057;52.042;6.830;2023-01-19T06:32:01;1.80;99.90
23755;DHT22;12057;52.042;6.830;2023-01-19T06:37:02;1.80;99.90
23755;DHT22;12057;52.042;6.830;2023-01-19T06:42:03;1.80;99.90
23755;DHT22;12057;52.042;6.830;2023-01-19T06:47:07;1.80;99.90
23755;DHT22;12057;52.042;6.830;2023-01-19T06:52:09;1.80;99.90
23755;DHT22;12057;52.042;6.830;2023-01-19T06:57:11;1.80;99.90
23755;DHT22;12057;52.042;6.830;2023-01-19T07:02:12;1.80;99.90
23755;DHT22;12057;52.042;6.830;2023-01-19T07:07:19;1.80;99.90
23755;DHT22;12057;52.042;6.830;2023-01-19T07:12:21;1.80;99.90
23755;DHT22;12057;52.042;6.830;2023-01-19T07:17:22;1.80;99.90
23755;DHT22;12057;52.042;6.830;2023-01-19T07:22:23;1.80;99.90
23755;DHT22;12057;52.042;6.830;2023-01-19T07:27:25;1.90;99.90
23755;DHT22;12057;52.042;6.830;2023-01-19T07:32:28;1.90;99.90
23755;DHT22;12057;52.042;6.830;2023-01-19T07:37:29;1.90;99.90
23755;DHT22;12057;52.042;6.830;2023-01-19T07:42:29;2.00;99.90
23755;DHT22;12057;52.042;6.830;2023-01-19T07:47:30;2.00;99.90
23755;DHT22;12057;52.042;6.830;2023-01-19T07:52:31;2.00;99.90
23755;DHT22;12057;52.042;6.830;2023-01-19T07:57:32;2.00;99.90
23755;DHT22;12057;52.042;6.830;2023-01-19T08:02:33;2.10;99.90
23755;DHT22;12057;52.042;6.830;2023-01-19T08:07:35;2.10;99.90
23755;DHT22;12057;52.042;6.830;2023-01-19T08:12:36;2.10;99.90
23755;DHT22;12057;52.042;6.830;2023-01-19T08:17:37;2.20;99.90
23755;DHT22;12057;52.042;6.830;2023-01-19T08:22:38;2.20;99.90
23755;DHT22;12057;52.042;6.830;2023-01-19T08:27:38;2.30;99.90
23755;DHT22;12057;52.042;6.830;2023-01-19T08:32:39;2.30;99.90
23755;DHT22;12057;52.042;6.830;2023-01-19T08:37:40;2.40;99.90
23755;DHT22;12057;52.042;6.830;2023-01-19T08:42:41;2.40;99.90
23755;DHT22;12057;52.042;6.830;2023-01-19T08:47:42;2.40;99.90
23755;DHT22;12057;52.042;6.830;2023-01-19T08:52:42;2.40;99.90
23755;DHT22;12057;52.042;6.830;2023-01-19T08:57:43;2.40;99.90
23755;DHT22;12057;52.042;6.830;2023-01-19T09:02:44;2.40;99.90
23755;DHT22;12057;52.042;6.830;2023-01-19T09:07:46;2.40;99.90
23755;DHT22;12057;52.042;6.830;2023-01-19T09:12:47;2.30;99.90
23755;DHT22;12057;52.042;6.830;2023-01-19T09:17:51;2.40;99.90
23755;DHT22;12057;52.042;6.830;2023-01-19T09:22:54;2.40;99.90
23755;DHT22;12057;52.042;6.830;2023-01-19T09:27:56;2.50;99.90
23755;DHT22;12057;52.042;6.830;2023-01-19T09:33:06;2.40;99.90
23755;DHT22;12057;52.042;6.830;2023-01-19T09:38:08;2.50;99.90
23755;DHT22;12057;52.042;6.830;2023-01-19T09:53:35;2.60;99.90
23755;DHT22;12057;52.042;6.830;2023-01-19T09:58:39;2.70;99.90
23755;DHT22;12057;52.042;6.830;2023-01-19T10:03:40;2.80;99.90
23755;DHT22;12057;52.042;6.830;2023-01-19T10:14:50;3.10;99.90
23755;DHT22;12057;52.042;6.830;2023-01-19T10:19:54;3.50;99.90
23755;DHT22;12057;52.042;6.830;2023-01-19T10:25:02;3.60;99.90
23755;DHT22;12057;52.042;6.830;2023-01-19T10:30:08;3.60;99.90
23755;DHT22;12057;52.042;6.830;2023-01-19T10:35:18;3.60;99.90
23755;DHT22;12057;52.042;6.830;2023-01-19T10:45:28;4.10;99.90
23755;DHT22;12057;52.042;6.830;2023-01-19T10:50:35;4.40;99.90
23755;DHT22;12057;52.042;6.830;2023-01-19T10:55:39;4.70;99.90
23755;DHT22;12057;52.042;6.830;2023-01-19T11:00:42;4.90;99.90
23755;DHT22;12057;52.042;6.830;2023-01-19T11:05:43;5.00;99.90
23755;DHT22;12057;52.042;6.830;2023-01-19T11:10:51;5.00;99.90
23755;DHT22;12057;52.042;6.830;2023-01-19T11:21:22;5.00;99.90
23755;DHT22;12057;52.042;6.830;2023-01-19T11:26:42;5.30;99.90
23755;DHT22;12057;52.042;6.830;2023-01-19T11:31:44;5.50;99.90
23755;DHT22;12057;52.042;6.830;2023-01-19T11:36:58;5.60;99.90
23755;DHT22;12057;52.042;6.830;2023-01-19T11:42:03;5.80;99.90
23755;DHT22;12057;52.042;6.830;2023-01-19T11:47:09;6.00;99.90
23755;DHT22;12057;52.042;6.830;2023-01-19T11:52:35;6.00;99.90
23755;DHT22;12057;52.042;6.830;2023-01-19T11:57:38;5.90;99.90
23755;DHT22;12057;52.042;6.830;2023-01-19T12:02:43;6.00;99.90
23755;DHT22;12057;52.042;6.830;2023-01-19T12:07:47;6.10;99.90
23755;DHT22;12057;52.042;6.830;2023-01-19T12:12:50;6.20;99.90
23755;DHT22;12057;52.042;6.830;2023-01-19T12:17:54;6.30;99.90
23755;DHT22;12057;52.042;6.830;2023-01-19T12:28:47;6.50;99.90
23755;DHT22;12057;52.042;6.830;2023-01-19T12:33:47;6.50;99.90
23755;DHT22;12057;52.042;6.830;2023-01-19T12:54:30;6.90;99.90
23755;DHT22;12057;52.042;6.830;2023-01-19T12:59:34;7.20;99.90
23755;DHT22;12057;52.042;6.830;2023-01-19T13:04:35;7.30;99.90
23755;DHT22;12057;52.042;6.830;2023-01-19T13:09:37;7.50;99.90
23755;DHT22;12057;52.042;6.830;2023-01-19T13:14:40;7.90;99.90
23755;DHT22;12057;52.042;6.830;2023-01-19T13:19:45;8.20;99.90
23755;DHT22;12057;52.042;6.830;2023-01-19T13:25:07;8.00;99.90
23755;DHT22;12057;52.042;6.830;2023-01-19T13:30:11;8.00;99.90
23755;DHT22;12057;52.042;6.830;2023-01-19T13:35:18;7.70;99.90
23755;DHT22;12057;52.042;6.830;2023-01-19T13:40:24;7.30;99.90
23755;DHT22;12057;52.042;6.830;2023-01-19T13:45:36;7.00;99.90
23755;DHT22;12057;52.042;6.830;2023-01-19T13:50:39;6.60;99.90
23755;DHT22;12057;52.042;6.830;2023-01-19T13:55:40;6.50;99.90
23755;DHT22;12057;52.042;6.830;2023-01-19T14:00:44;6.60;99.90
23755;DHT22;12057;52.042;6.830;2023-01-19T14:05:49;6.10;99.90
23755;DHT22;12057;52.042;6.830;2023-01-19T14:15:55;5.70;99.90
23755;DHT22;12057;52.042;6.830;2023-01-19T14:25:56;5.30;99.90
23755;DHT22;12057;52.042;6.830;2023-01-19T14:30:58;5.10;99.90
23755;DHT22;12057;52.042;6.830;2023-01-19T14:41:46;4.90;99.90
23755;DHT22;12057;52.042;6.830;2023-01-19T14:46:48;4.90;99.90
23755;DHT22;12057;52.042;6.830;2023-01-19T14:51:50;4.70;99.90
23755;DHT22;12057;52.042;6.830;2023-01-19T14:56:52;4.60;99.90
23755;DHT22;12057;52.042;6.830;2023-01-19T15:01:53;4.50;99.90
23755;DHT22;12057;52.042;6.830;2023-01-19T15:06:57;4.60;99.90
23755;DHT22;12057;52.042;6.830;2023-01-19T15:11:58;4.60;99.90
23755;DHT22;12057;52.042;6.830;2023-01-19T15:16:59;4.70;99.90
23755;DHT22;12057;52.042;6.830;2023-01-19T15:22:00;4.60;99.90
23755;DHT22;12057;52.042;6.830;2023-01-19T15:27:01;4.60;99.90
23755;DHT22;12057;52.042;6.830;2023-01-19T15:32:02;4.60;99.90
23755;DHT22;12057;52.042;6.830;2023-01-19T15:37:03;4.40;99.90
23755;DHT22;12057;52.042;6.830;2023-01-19T15:42:09;4.40;99.90
23755;DHT22;12057;52.042;6.830;2023-01-19T15:47:10;4.20;99.90
23755;DHT22;12057;52.042;6.830;2023-01-19T15:52:11;4.10;99.90
23755;DHT22;12057;52.042;6.830;2023-01-19T15:57:11;4.00;99.90
23755;DHT22;12057;52.042;6.830;2023-01-19T16:02:12;3.90;99.90
23755;DHT22;12057;52.042;6.830;2023-01-19T16:07:13;3.80;99.90
23755;DHT22;12057;52.042;6.830;2023-01-19T16:12:17;3.60;99.90
23755;DHT22;12057;52.042;6.830;2023-01-19T16:17:17;3.50;99.90
23755;DHT22;12057;52.042;6.830;2023-01-19T16:22:19;3.40;99.90
23755;DHT22;12057;52.042;6.830;2023-01-19T16:27:20;3.30;99.90
23755;DHT22;12057;52.042;6.830;2023-01-19T16:32:21;3.10;99.90
23755;DHT22;12057;52.042;6.830;2023-01-19T16:37:25;3.10;99.90
23755;DHT22;12057;52.042;6.830;2023-01-19T16:42:26;3.00;99.90
23755;DHT22;12057;52.042;6.830;2023-01-19T16:47:26;3.00;99.90
23755;DHT22;12057;52.042;6.830;2023-01-19T16:52:27;3.00;99.90
23755;DHT22;12057;52.042;6.830;2023-01-19T16:57:28;2.90;99.90
23755;DHT22;12057;52.042;6.830;2023-01-19T17:02:29;2.90;99.90
23755;DHT22;12057;52.042;6.830;2023-01-19T17:07:30;2.80;99.90
23755;DHT22;12057;52.042;6.830;2023-01-19T17:12:31;2.80;99.90
23755;DHT22;12057;52.042;6.830;2023-01-19T17:17:31;2.80;99.90
23755;DHT22;12057;52.042;6.830;2023-01-19T17:22:34;2.70;99.90
23755;DHT22;12057;52.042;6.830;2023-01-19T17:27:35;2.70;99.90
23755;DHT22;12057;52.042;6.830;2023-01-19T17:32:36;2.60;99.90
23755;DHT22;12057;52.042;6.830;2023-01-19T17:37:36;2.60;99.90
23755;DHT22;12057;52.042;6.830;2023-01-19T17:42:39;2.60;99.90
23755;DHT22;12057;52.042;6.830;2023-01-19T17:47:40;2.50;99.90
23755;DHT22;12057;52.042;6.830;2023-01-19T17:52:41;2.40;99.90
23755;DHT22;12057;52.042;6.830;2023-01-19T17:57:41;2.50;99.90
23755;DHT22;12057;52.042;6.830;2023-01-19T18:02:42;2.40;99.90
23755;DHT22;12057;52.042;6.830;2023-01-19T18:07:43;2.40;99.90
23755;DHT22;12057;52.042;6.830;2023-01-19T18:12:44;2.40;99.90
23755;DHT22;12057;52.042;6.830;2023-01-19T18:17:45;2.30;99.90
23755;DHT22;12057;52.042;6.830;2023-01-19T18:22:45;2.20;99.90
23755;DHT22;12057;52.042;6.830;2023-01-19T18:27:46;2.20;99.90
23755;DHT22;12057;52.042;6.830;2023-01-19T18:32:47;2.20;99.90
23755;DHT22;12057;52.042;6.830;2023-01-19T18:37:51;2.10;99.90
23755;DHT22;12057;52.042;6.830;2023-01-19T18:42:53;2.00;99.90
23755;DHT22;12057;52.042;6.830;2023-01-19T18:47:53;2.00;99.90
23755;DHT22;12057;52.042;6.830;2023-01-19T18:52:54;1.90;99.90
23755;DHT22;12057;52.042;6.830;2023-01-19T18:57:55;1.80;99.90
23755;DHT22;12057;52.042;6.830;2023-01-19T19:02:56;1.80;99.90
23755;DHT22;12057;52.042;6.830;2023-01-19T19:07:57;1.80;99.90
23755;DHT22;12057;52.042;6.830;2023-01-19T19:12:58;1.70;99.90
23755;DHT22;12057;52.042;6.830;2023-01-19T19:17:59;1.70;99.90
23755;DHT22;12057;52.042;6.830;2023-01-19T19:23:00;1.70;99.90
23755;DHT22;12057;52.042;6.830;2023-01-19T19:28:00;1.60;99.90
23755;DHT22;12057;52.042;6.830;2023-01-19T19:33:01;1.50;99.90
23755;DHT22;12057;52.042;6.830;2023-01-19T19:38:02;1.50;99.90
23755;DHT22;12057;52.042;6.830;2023-01-19T19:43:03;1.40;99.90
23755;DHT22;12057;52.042;6.830;2023-01-19T19:48:04;1.40;99.90
23755;DHT22;12057;52.042;6.830;2023-01-19T19:53:04;1.40;99.90
23755;DHT22;12057;52.042;6.830;2023-01-19T19:58:05;1.30;99.90
23755;DHT22;12057;52.042;6.830;2023-01-19T20:03:06;1.30;99.90
23755;DHT22;12057;52.042;6.830;2023-01-19T20:08:13;1.20;99.90
23755;DHT22;12057;52.042;6.830;2023-01-19T20:13:13;1.20;99.90
23755;DHT22;12057;52.042;6.830;2023-01-19T20:18:17;1.20;99.90
23755;DHT22;12057;52.042;6.830;2023-01-19T20:23:17;1.20;99.90
23755;DHT22;12057;52.042;6.830;2023-01-19T20:28:18;1.10;99.90
23755;DHT22;12057;52.042;6.830;2023-01-19T20:33:19;1.20;99.90
23755;DHT22;12057;52.042;6.830;2023-01-19T20:38:20;1.30;99.90
23755;DHT22;12057;52.042;6.830;2023-01-19T20:43:20;1.30;99.90
23755;DHT22;12057;52.042;6.830;2023-01-19T20:48:21;1.40;99.90
23755;DHT22;12057;52.042;6.830;2023-01-19T20:53:22;1.40;99.90
23755;DHT22;12057;52.042;6.830;2023-01-19T20:58:23;1.50;99.90
23755;DHT22;12057;52.042;6.830;2023-01-19T21:03:24;1.50;99.90
23755;DHT22;12057;52.042;6.830;2023-01-19T21:08:25;1.50;99.90
23755;DHT22;12057;52.042;6.830;2023-01-19T21:13:26;1.50;99.90
23755;DHT22;12057;52.042;6.830;2023-01-19T21:18:27;1.40;99.90
23755;DHT22;12057;52.042;6.830;2023-01-19T21:23:28;1.50;99.90
23755;DHT22;12057;52.042;6.830;2023-01-19T21:28:29;1.60;99.90
23755;DHT22;12057;52.042;6.830;2023-01-19T21:33:31;1.60;99.90
23755;DHT22;12057;52.042;6.830;2023-01-19T21:38:34;1.60;99.90
23755;DHT22;12057;52.042;6.830;2023-01-19T21:43:36;1.60;99.90
23755;DHT22;12057;52.042;6.830;2023-01-19T21:48:39;1.70;99.90
23755;DHT22;12057;52.042;6.830;2023-01-19T21:53:40;1.70;99.90
23755;DHT22;12057;52.042;6.830;2023-01-19T21:58:40;1.70;99.90
23755;DHT22;12057;52.042;6.830;2023-01-19T22:03:41;1.70;99.90
23755;DHT22;12057;52.042;6.830;2023-01-19T22:08:42;1.70;99.90
23755;DHT22;12057;52.042;6.830;2023-01-19T22:13:46;1.80;99.90
23755;DHT22;12057;52.042;6.830;2023-01-19T22:18:55;1.80;99.90
23755;DHT22;12057;52.042;6.830;2023-01-19T22:24:00;1.80;99.90
23755;DHT22;12057;52.042;6.830;2023-01-19T22:29:02;1.90;99.90
23755;DHT22;12057;52.042;6.830;2023-01-19T22:34:04;1.90;99.90
23755;DHT22;12057;52.042;6.830;2023-01-19T22:39:11;1.90;99.90
23755;DHT22;12057;52.042;6.830;2023-01-19T22:44:14;1.90;99.90
23755;DHT22;12057;52.042;6.830;2023-01-19T22:49:16;1.90;99.90
23755;DHT22;12057;52.042;6.830;2023-01-19T22:54:17;1.90;99.90
23755;DHT22;12057;52.042;6.830;2023-01-19T22:59:18;1.90;99.90
23755;DHT22;12057;52.042;6.830;2023-01-19T23:04:19;1.80;99.90
23755;DHT22;12057;52.042;6.830;2023-01-19T23:09:20;1.80;99.90
23755;DHT22;12057;52.042;6.830;2023-01-19T23:14:21;1.80;99.90
23755;DHT22;12057;52.042;6.830;2023-01-19T23:19:22;1.80;99.90
23755;DHT22;12057;52.042;6.830;2023-01-19T23:24:22;1.80;99.90
23755;DHT22;12057;52.042;6.830;2023-01-19T23:29:23;1.70;99.90
23755;DHT22;12057;52.042;6.830;2023-01-19T23:34:24;1.70;99.90
23755;DHT22;12057;52.042;6.830;2023-01-19T23:39:25;1.70;99.90
23755;DHT22;12057;52.042;6.830;2023-01-19T23:44:26;1.70;99.90
23755;DHT22;12057;52.042;6.830;2023-01-19T23:49:29;1.70;99.90
23755;DHT22;12057;52.042;6.830;2023-01-19T23:54:30;1.70;99.90
23755;DHT22;12057;52.042;6.830;2023-01-19T23:59:31;1.70;99.90
